createdAt,value
2022-11-02T00:01:11.722Z,11.82
2022-11-02T00:06:12.448Z,11.80
2022-11-02T00:11:13.136Z,11.78
2022-11-02T00:16:13.903Z,11.73
2022-11-02T00:21:14.621Z,11.70
2022-11-02T00:26:15.328Z,11.69
2022-11-02T00:31:16.153Z,11.76
2022-11-02T00:36:17.024Z,11.70
2022-11-02T00:41:17.752Z,11.64
2022-11-02T00:46:18.583Z,11.57
2022-11-02T00:51:19.332Z,11.47
2022-11-02T00:56:20.001Z,11.40
2022-11-02T01:01:20.852Z,11.40
2022-11-02T01:06:21.609Z,11.37
2022-11-02T01:11:22.443Z,11.35
2022-11-02T01:16:23.143Z,11.35
2022-11-02T01:21:24.089Z,11.35
2022-11-02T01:26:24.871Z,11.35
2022-11-02T01:31:25.575Z,11.32
2022-11-02T01:36:26.374Z,11.21
2022-11-02T01:41:27.072Z,11.15
2022-11-02T01:46:28.125Z,11.07
2022-11-02T01:51:28.353Z,10.99
2022-11-02T01:56:29.127Z,10.91
2022-11-02T02:01:29.924Z,10.88
2022-11-02T02:06:30.729Z,10.81
2022-11-02T02:11:31.436Z,10.84
2022-11-02T02:16:33.682Z,10.84
2022-11-02T02:21:40.003Z,10.81
2022-11-02T02:26:33.837Z,10.84
2022-11-02T02:31:34.521Z,10.84
2022-11-02T02:36:35.420Z,10.85
2022-11-02T02:41:36.304Z,10.85
2022-11-02T02:46:39.182Z,10.85
2022-11-02T02:51:37.738Z,10.85
2022-11-02T02:56:38.497Z,10.84
2022-11-02T03:01:39.494Z,10.81
2022-11-02T03:06:39.829Z,10.82
2022-11-02T03:11:40.574Z,10.79
2022-11-02T03:16:41.260Z,10.74
2022-11-02T03:21:42.005Z,10.74
2022-11-02T03:26:42.738Z,10.71
2022-11-02T03:31:43.482Z,10.68
2022-11-02T03:36:44.190Z,10.70
2022-11-02T03:41:44.933Z,10.66
2022-11-02T03:46:45.664Z,10.60
2022-11-02T03:51:46.390Z,10.51
2022-11-02T03:56:47.332Z,10.41
2022-11-02T04:01:48.270Z,10.36
2022-11-02T04:06:48.594Z,10.32
2022-11-02T04:11:49.444Z,10.23
2022-11-02T04:16:50.271Z,10.18
2022-11-02T04:21:50.977Z,10.15
2022-11-02T04:26:51.771Z,10.15
2022-11-02T04:31:52.576Z,10.17
2022-11-02T04:36:53.282Z,10.25
2022-11-02T04:41:54.097Z,10.29
2022-11-02T04:46:54.936Z,10.30
2022-11-02T04:51:55.665Z,10.26
2022-11-02T04:56:56.408Z,10.20
2022-11-02T05:01:57.312Z,10.15
2022-11-02T05:07:01.469Z,10.14
2022-11-02T05:11:58.673Z,10.11
2022-11-02T05:16:59.344Z,10.09
2022-11-02T05:22:00.173Z,9.97
2022-11-02T05:27:00.958Z,9.96
2022-11-02T05:32:01.705Z,10.02
2022-11-02T05:37:02.546Z,10.05
2022-11-02T05:42:03.290Z,10.05
2022-11-02T05:47:03.947Z,10.09
2022-11-02T05:52:04.663Z,10.08
2022-11-02T05:57:05.422Z,10.01
2022-11-02T06:02:06.137Z,9.94
2022-11-02T06:07:06.938Z,9.99
2022-11-02T06:12:07.659Z,10.01
2022-11-02T06:17:08.316Z,9.97
2022-11-02T06:22:09.148Z,10.01
2022-11-02T06:27:09.973Z,10.14
2022-11-02T06:32:10.609Z,10.09
2022-11-02T06:37:11.283Z,10.08
2022-11-02T06:42:11.939Z,10.11
2022-11-02T06:47:12.655Z,10.12
2022-11-02T06:52:13.383Z,10.25
2022-11-02T06:57:14.030Z,10.29
2022-11-02T07:02:14.759Z,10.26
2022-11-02T07:07:15.436Z,10.34
2022-11-02T07:12:19.249Z,10.45
2022-11-02T07:17:17.754Z,10.47
2022-11-02T07:22:17.453Z,10.55
2022-11-02T07:27:18.113Z,10.67
2022-11-02T07:32:18.816Z,10.84
2022-11-02T07:37:19.489Z,10.96
2022-11-02T07:42:20.215Z,11.15
2022-11-02T07:47:21.134Z,11.37
2022-11-02T07:52:21.961Z,11.49
2022-11-02T07:57:22.757Z,11.75
2022-11-02T08:02:23.551Z,11.86
2022-11-02T08:07:24.468Z,12.04
2022-11-02T08:12:25.309Z,12.14
2022-11-02T08:17:25.976Z,12.17
2022-11-02T08:22:33.626Z,12.20
2022-11-02T08:27:27.225Z,12.23
2022-11-02T08:32:27.777Z,12.19
2022-11-02T08:37:28.451Z,12.21
2022-11-02T08:42:29.124Z,12.20
2022-11-02T08:47:29.788Z,12.27
2022-11-02T08:52:30.503Z,12.29
2022-11-02T08:57:31.284Z,12.19
2022-11-02T09:02:32.078Z,12.20
2022-11-02T09:07:32.794Z,12.23
2022-11-02T09:12:33.497Z,12.37
2022-11-02T09:17:34.157Z,12.46
2022-11-02T09:22:34.858Z,12.64
2022-11-02T09:27:35.519Z,12.82
2022-11-02T09:32:36.236Z,13.00
2022-11-02T09:37:36.956Z,13.19
2022-11-02T09:42:37.635Z,13.36
2022-11-02T09:48:14.931Z,13.45
2022-11-02T09:52:39.955Z,13.59
2022-11-02T09:57:39.628Z,13.75
2022-11-02T10:02:40.373Z,13.95
2022-11-02T10:07:41.049Z,14.18
2022-11-02T10:12:41.733Z,14.33
2022-11-02T10:17:42.414Z,14.39
2022-11-02T10:22:43.074Z,14.46
2022-11-02T10:27:43.807Z,14.58
2022-11-02T10:32:44.531Z,14.64
2022-11-02T10:37:45.292Z,14.73
2022-11-02T10:42:46.014Z,14.78
2022-11-02T10:47:46.730Z,14.91
2022-11-02T10:52:47.542Z,14.96
2022-11-02T10:57:48.367Z,15.01
2022-11-02T11:02:49.049Z,15.13
2022-11-02T11:07:49.810Z,15.28
2022-11-02T11:12:50.584Z,15.47
2022-11-02T11:22:52.910Z,15.65
2022-11-02T11:27:52.542Z,15.49
2022-11-02T11:32:53.224Z,15.41
2022-11-02T11:37:53.946Z,15.49
2022-11-02T11:42:57.488Z,15.50
2022-11-02T11:47:56.150Z,15.44
2022-11-02T11:52:55.834Z,15.44
2022-11-02T11:57:56.504Z,15.51
2022-11-02T12:02:57.243Z,15.43
2022-11-02T12:07:57.859Z,15.36
2022-11-02T12:12:58.567Z,15.41
2022-11-02T12:17:59.301Z,15.57
2022-11-02T12:23:00.057Z,15.64
2022-11-02T12:28:00.806Z,15.62
2022-11-02T12:33:01.649Z,15.54
2022-11-02T12:38:01.989Z,15.46
2022-11-02T12:43:02.982Z,15.44
2022-11-02T12:48:03.814Z,15.51
2022-11-02T12:53:04.632Z,15.54
2022-11-02T12:58:05.093Z,15.65
2022-11-02T13:03:05.831Z,15.65
2022-11-02T13:08:06.427Z,15.57
2022-11-02T13:13:07.151Z,15.51
2022-11-02T13:18:07.947Z,15.49
2022-11-02T13:23:08.669Z,15.46
2022-11-02T13:28:09.291Z,15.54
2022-11-02T13:33:09.634Z,15.56
2022-11-02T13:38:10.469Z,15.39
2022-11-02T13:43:11.206Z,15.25
2022-11-02T13:48:11.824Z,15.10
2022-11-02T13:53:12.547Z,15.02
2022-11-02T13:58:13.212Z,15.07
2022-11-02T14:03:13.966Z,15.11
2022-11-02T14:08:14.692Z,15.20
2022-11-02T14:13:15.384Z,15.10
2022-11-02T14:18:16.096Z,15.07
2022-11-02T14:29:05.585Z,14.92
2022-11-02T14:34:06.374Z,14.81
2022-11-02T14:39:07.065Z,14.72
2022-11-02T14:44:07.743Z,14.68
2022-11-02T14:49:08.582Z,14.64
2022-11-02T14:54:09.270Z,14.58
2022-11-02T14:59:09.973Z,14.52
2022-11-02T15:04:10.725Z,14.46
2022-11-02T15:09:11.346Z,14.36
2022-11-02T15:14:12.059Z,14.28
2022-11-02T15:19:12.957Z,14.22
2022-11-02T15:24:16.787Z,14.14
2022-11-02T15:29:14.458Z,14.07
2022-11-02T15:34:15.477Z,14.02
2022-11-02T15:39:15.818Z,13.96
2022-11-02T15:44:16.681Z,13.91
2022-11-02T15:49:17.309Z,13.84
2022-11-02T15:54:18.005Z,13.81
2022-11-02T15:59:18.655Z,13.75
2022-11-02T16:04:19.369Z,13.66
2022-11-02T16:09:20.311Z,13.60
2022-11-02T16:14:20.596Z,13.55
2022-11-02T16:19:21.355Z,13.48
2022-11-02T16:24:22.169Z,13.38
2022-11-02T16:29:22.917Z,13.28
2022-11-02T16:34:23.658Z,13.17
2022-11-02T16:39:24.409Z,13.10
2022-11-02T16:44:25.040Z,13.04
2022-11-02T16:49:25.803Z,13.00
2022-11-02T16:54:26.617Z,12.93
2022-11-02T16:59:27.564Z,12.90
2022-11-02T17:04:28.307Z,12.85
2022-11-02T17:09:29.177Z,12.78
2022-11-02T17:14:30.023Z,12.77
2022-11-02T17:19:30.714Z,12.70
2022-11-02T17:24:31.495Z,12.64
2022-11-02T17:29:32.270Z,12.60
2022-11-02T17:34:32.927Z,12.56
2022-11-02T17:39:33.742Z,12.45
2022-11-02T17:44:34.536Z,12.38
2022-11-02T17:49:35.388Z,12.35
2022-11-02T17:54:36.326Z,12.32
2022-11-02T17:59:37.072Z,12.34
2022-11-02T18:04:37.909Z,12.28
2022-11-02T18:09:38.558Z,12.23
2022-11-02T18:14:39.542Z,12.17
2022-11-02T18:19:39.861Z,12.13
2022-11-02T18:24:40.509Z,12.13
2022-11-02T18:29:41.433Z,12.09
2022-11-02T18:34:42.219Z,12.07
2022-11-02T18:39:43.047Z,12.02
2022-11-02T18:44:43.857Z,11.99
2022-11-02T18:49:44.567Z,11.96
2022-11-02T18:54:45.339Z,11.90
2022-11-02T18:59:46.061Z,11.83
2022-11-02T19:04:46.838Z,11.88
2022-11-02T19:09:47.877Z,12.14
2022-11-02T19:14:48.190Z,12.12
2022-11-02T19:19:48.921Z,11.96
2022-11-02T19:24:49.667Z,11.79
2022-11-02T19:29:50.385Z,11.67
2022-11-02T19:34:51.163Z,11.54
2022-11-02T19:39:51.982Z,11.43
2022-11-02T19:44:56.199Z,11.35
2022-11-02T19:49:53.361Z,11.27
2022-11-02T19:54:54.240Z,11.19
2022-11-02T19:59:55.017Z,11.10
2022-11-02T20:04:55.851Z,11.02
2022-11-02T20:09:58.783Z,10.94
2022-11-02T20:14:57.555Z,10.89
2022-11-02T20:19:58.306Z,10.85
2022-11-02T20:24:59.047Z,10.76
2022-11-02T20:29:59.909Z,10.71
2022-11-02T20:35:00.812Z,10.66
2022-11-02T20:40:01.599Z,10.63
2022-11-02T20:45:02.497Z,10.60
2022-11-02T20:50:03.297Z,10.53
2022-11-02T20:55:04.057Z,10.48
2022-11-02T21:00:04.786Z,10.48
2022-11-02T21:05:05.567Z,10.48
2022-11-02T21:10:06.393Z,10.52
2022-11-02T21:15:07.130Z,10.48
2022-11-02T21:20:33.057Z,10.45
2022-11-02T21:25:09.579Z,10.44
2022-11-02T21:30:09.345Z,10.44
2022-11-02T21:35:10.162Z,10.42
2022-11-02T21:40:10.952Z,10.36
2022-11-02T21:45:16.501Z,10.33
2022-11-02T21:50:13.350Z,10.29
2022-11-02T21:55:13.246Z,10.25
2022-11-02T22:00:14.024Z,10.26
2022-11-02T22:05:14.731Z,10.23
2022-11-02T22:10:22.494Z,10.11
2022-11-02T22:15:16.188Z,10.04
2022-11-02T22:20:16.921Z,10.04
2022-11-02T22:25:17.795Z,10.02
2022-11-02T22:30:18.702Z,9.94
2022-11-02T22:35:19.416Z,9.87
2022-11-02T22:40:20.291Z,9.79
2022-11-02T22:45:21.006Z,9.78
2022-11-02T22:50:23.787Z,9.76
2022-11-02T22:55:23.461Z,9.78
2022-11-02T23:00:23.324Z,9.76
2022-11-02T23:05:24.014Z,9.74
2022-11-02T23:10:24.817Z,9.76
2022-11-02T23:15:25.580Z,9.75
2022-11-02T23:20:26.309Z,9.75
2022-11-02T23:25:27.098Z,9.71
2022-11-02T23:30:27.848Z,9.69
2022-11-02T23:35:28.582Z,9.61
2022-11-02T23:40:29.276Z,9.51
2022-11-02T23:45:30.077Z,9.48
2022-11-02T23:50:30.794Z,9.40
2022-11-02T23:55:31.529Z,9.35
